createdAt,value
2024-01-11T00:03:35.322Z,-8.28
2024-01-11T00:08:35.519Z,-8.29
2024-01-11T00:13:35.257Z,-8.24
2024-01-11T00:18:35.394Z,-8.23
2024-01-11T00:23:35.425Z,-8.29
2024-01-11T00:28:35.353Z,-8.37
2024-01-11T00:33:35.443Z,-8.55
2024-01-11T00:38:35.598Z,-8.73
2024-01-11T00:43:35.334Z,-8.86
2024-01-11T00:48:35.445Z,-8.95
2024-01-11T00:53:35.477Z,-8.99
2024-01-11T00:58:35.362Z,-9.07
2024-01-11T01:03:35.394Z,-9.14
2024-01-11T01:08:35.393Z,-9.15
2024-01-11T01:13:35.354Z,-9.23
2024-01-11T01:18:35.495Z,-9.28
2024-01-11T01:23:35.432Z,-9.33
2024-01-11T01:28:35.264Z,-9.38
2024-01-11T01:33:35.653Z,-9.4
2024-01-11T01:38:35.534Z,-9.49
2024-01-11T01:43:35.365Z,-9.61
2024-01-11T01:48:35.693Z,-9.65
2024-01-11T01:53:35.499Z,-9.63
2024-01-11T01:58:35.758Z,-9.57
2024-01-11T02:03:35.627Z,-9.41
2024-01-11T02:08:35.966Z,-9.5
2024-01-11T02:13:36.770Z,-9.73
2024-01-11T02:18:35.492Z,-9.94
2024-01-11T02:23:35.428Z,-10.07
2024-01-11T02:28:35.331Z,-10.12
2024-01-11T02:33:35.556Z,-10.15
2024-01-11T02:38:35.727Z,-10.21
2024-01-11T02:43:36.977Z,-10.2
2024-01-11T02:48:36.615Z,-10.34
2024-01-11T02:53:35.629Z,-10.36
2024-01-11T02:58:35.412Z,-10.41
2024-01-11T03:03:35.455Z,-10.4
2024-01-11T03:08:36.717Z,-10.37
2024-01-11T03:13:36.054Z,-10.53
2024-01-11T03:18:35.468Z,-10.51
2024-01-11T03:23:35.487Z,-10.55
2024-01-11T03:28:35.855Z,-10.44
2024-01-11T03:33:35.465Z,-10.41
2024-01-11T03:38:35.523Z,-10.08
2024-01-11T03:43:35.477Z,-9.97
2024-01-11T03:48:36.861Z,-9.79
2024-01-11T03:53:35.487Z,-9.69
2024-01-11T03:58:35.369Z,-9.68
2024-01-11T04:03:35.473Z,-9.57
2024-01-11T04:08:35.401Z,-9.62
2024-01-11T04:13:35.669Z,-9.68
2024-01-11T04:18:35.562Z,-9.71
2024-01-11T04:23:35.917Z,-9.65
2024-01-11T04:28:35.411Z,-9.71
2024-01-11T04:33:35.517Z,-9.68
2024-01-11T04:38:35.459Z,-9.69
2024-01-11T04:43:35.386Z,-9.66
2024-01-11T04:48:35.499Z,-9.56
2024-01-11T04:53:35.590Z,-9.54
2024-01-11T04:58:35.456Z,-9.6
2024-01-11T05:03:35.609Z,-9.64
2024-01-11T05:08:35.602Z,-9.77
2024-01-11T05:13:35.455Z,-9.97
2024-01-11T05:18:35.763Z,-10.11
2024-01-11T05:23:35.514Z,-10.14
2024-01-11T05:28:35.444Z,-10.12
2024-01-11T05:33:36.055Z,-10.25
2024-01-11T05:38:35.532Z,-10.37
2024-01-11T05:43:35.431Z,-10.36
2024-01-11T05:48:35.501Z,-10.25
2024-01-11T05:53:36.766Z,-10.29
2024-01-11T05:58:35.517Z,-10.35
2024-01-11T06:03:35.796Z,-10.38
2024-01-11T06:08:35.809Z,-10.34
2024-01-11T06:13:35.487Z,-10.12
2024-01-11T06:18:35.531Z,-10.07
2024-01-11T06:23:35.733Z,-9.99
2024-01-11T06:28:36.553Z,-9.96
2024-01-11T06:33:38.073Z,-9.9
2024-01-11T06:38:35.495Z,-9.9
2024-01-11T06:43:35.839Z,-9.79
2024-01-11T06:48:35.723Z,-9.77
2024-01-11T06:53:35.647Z,-9.8
2024-01-11T06:58:35.487Z,-9.81
2024-01-11T07:03:35.534Z,-9.94
2024-01-11T07:08:35.941Z,-9.99
2024-01-11T07:13:35.859Z,-10.09
2024-01-11T07:18:35.656Z,-10.11
2024-01-11T07:23:35.594Z,-10.16
2024-01-11T07:28:37.719Z,-10.12
2024-01-11T07:33:35.628Z,-10.12
2024-01-11T07:38:35.614Z,-10.18
2024-01-11T07:43:45.017Z,-10.19
2024-01-11T07:48:36.016Z,-10.16
2024-01-11T07:53:36.147Z,-10.09
2024-01-11T07:58:36.901Z,-9.99
2024-01-11T08:03:35.957Z,-9.96
2024-01-11T08:08:35.535Z,-9.85
2024-01-11T08:13:35.794Z,-9.64
2024-01-11T08:18:35.616Z,-9.4
2024-01-11T08:23:35.556Z,-9.18
2024-01-11T08:28:35.491Z,-8.97
2024-01-11T08:33:35.645Z,-8.69
2024-01-11T08:38:36.792Z,-8.01
2024-01-11T08:43:35.464Z,-5.86
2024-01-11T08:48:35.682Z,-4.3
2024-01-11T08:53:35.531Z,-3.8
2024-01-11T08:58:35.701Z,-3.36
2024-01-11T09:03:35.590Z,-3.28
2024-01-11T09:08:35.629Z,-4.41
2024-01-11T09:13:35.589Z,-5.17
2024-01-11T09:18:35.789Z,-5.41
2024-01-11T09:23:35.597Z,-5.47
2024-01-11T09:28:35.559Z,-5.53
2024-01-11T09:33:35.663Z,-5.38
2024-01-11T09:38:35.615Z,-5.34
2024-01-11T09:43:36.833Z,-5.13
2024-01-11T09:48:38.178Z,-5.06
2024-01-11T09:53:37.828Z,-4.98
2024-01-11T09:58:37.658Z,-4.8
2024-01-11T10:03:35.595Z,-4.6
2024-01-11T10:08:36.933Z,-4.47
2024-01-11T10:13:37.048Z,-4.38
2024-01-11T10:18:35.751Z,-4.34
2024-01-11T10:23:38.105Z,-4.17
2024-01-11T10:28:38.419Z,-4.11
2024-01-11T10:33:35.637Z,-4.13
2024-01-11T10:38:35.797Z,-4.01
2024-01-11T10:43:36.507Z,-3.97
2024-01-11T10:48:36.035Z,-3.99
2024-01-11T10:53:48.287Z,-3.86
2024-01-11T10:58:36.303Z,-3.75
2024-01-11T11:03:36.417Z,-3.66
2024-01-11T11:08:37.356Z,-3.6
2024-01-11T11:13:36.244Z,-3.6
2024-01-11T11:18:38.563Z,-3.5
2024-01-11T11:23:35.753Z,-3.29
2024-01-11T11:28:37.721Z,-3.17
2024-01-11T11:33:35.907Z,-3.16
2024-01-11T11:38:36.885Z,-3.08
2024-01-11T11:43:37.341Z,-3.03
2024-01-11T11:48:47.260Z,-2.96
2024-01-11T11:53:38.093Z,-2.78
2024-01-11T11:58:36.940Z,-2.92
2024-01-11T12:03:37.032Z,-2.67
2024-01-11T12:08:36.548Z,-2.59
2024-01-11T12:13:37.073Z,-2.53
2024-01-11T12:18:35.801Z,-2.35
2024-01-11T12:23:36.049Z,-2.6
2024-01-11T12:28:36.090Z,-2.58
2024-01-11T12:33:36.219Z,-2.57
2024-01-11T12:38:35.788Z,-2.52
2024-01-11T12:43:36.003Z,-2.37
2024-01-11T12:48:35.823Z,-2.59
2024-01-11T12:53:35.688Z,-2.44
2024-01-11T12:58:35.661Z,-2.19
2024-01-11T13:03:35.741Z,-2.11
2024-01-11T13:08:37.382Z,-1.97
2024-01-11T13:13:35.777Z,-2.05
2024-01-11T13:18:35.823Z,-2.11
2024-01-11T13:23:35.684Z,-1.98
2024-01-11T13:28:35.724Z,-1.89
2024-01-11T13:33:35.676Z,-1.92
2024-01-11T13:38:35.737Z,-1.95
2024-01-11T13:43:35.855Z,-2.02
2024-01-11T13:48:36.364Z,-2.15
2024-01-11T13:53:35.783Z,-2.01
2024-01-11T13:58:35.609Z,-2.16
2024-01-11T14:03:35.711Z,-2.2
2024-01-11T14:08:35.692Z,-2.25
2024-01-11T14:13:35.657Z,-2.23
2024-01-11T14:18:35.939Z,-2.15
2024-01-11T14:23:35.701Z,-2.07
2024-01-11T14:28:35.656Z,-1.99
2024-01-11T14:33:37.411Z,-1.96
2024-01-11T14:38:35.714Z,-1.97
2024-01-11T14:43:36.115Z,-1.88
2024-01-11T14:48:35.842Z,-1.85
2024-01-11T14:53:35.674Z,-1.9
2024-01-11T14:58:35.838Z,-1.96
2024-01-11T15:03:35.745Z,-2.11
2024-01-11T15:08:35.934Z,-2.06
2024-01-11T15:13:35.936Z,-2.21
2024-01-11T15:18:35.959Z,-2.26
2024-01-11T15:23:35.871Z,-2.32
2024-01-11T15:28:36.326Z,-2.33
2024-01-11T15:33:36.886Z,-2.4
2024-01-11T15:38:36.040Z,-2.4
2024-01-11T15:43:36.092Z,-2.42
2024-01-11T15:48:35.927Z,-2.4
2024-01-11T15:53:35.760Z,-2.41
2024-01-11T15:58:35.798Z,-2.42
2024-01-11T16:03:35.836Z,-2.4
2024-01-11T16:08:35.853Z,-2.37
2024-01-11T16:13:35.828Z,-2.33
2024-01-11T16:18:39.356Z,-2.36
2024-01-11T16:23:36.673Z,-2.38
2024-01-11T16:28:36.148Z,-2.38
2024-01-11T16:33:35.887Z,-2.41
2024-01-11T16:38:35.958Z,-2.33
2024-01-11T16:43:35.862Z,-2.3
2024-01-11T16:48:36.119Z,-2.34
2024-01-11T16:53:35.869Z,-2.29
2024-01-11T16:58:35.801Z,-2.28
2024-01-11T17:03:35.900Z,-2.19
2024-01-11T17:08:35.984Z,-2.15
2024-01-11T17:13:45.016Z,-2.18
2024-01-11T17:18:44.652Z,-2.19
2024-01-11T17:23:44.385Z,-2.22
2024-01-11T17:28:43.162Z,-2.16
2024-01-11T17:33:46.903Z,-2.14
2024-01-11T17:38:42.693Z,-2.13
2024-01-11T17:43:41.906Z,-2.18
2024-01-11T17:48:43.179Z,-2.17
2024-01-11T17:53:41.729Z,-2.22
2024-01-11T17:58:40.598Z,-2.2
2024-01-11T18:03:39.913Z,-2.13
2024-01-11T18:08:41.205Z,-2.19
2024-01-11T18:13:40.473Z,-2.19
2024-01-11T18:18:39.962Z,-2.15
2024-01-11T18:23:37.575Z,-2.16
2024-01-11T18:28:37.233Z,-2.16
2024-01-11T18:33:37.892Z,-2.12
2024-01-11T18:38:36.214Z,-2.13
2024-01-11T18:43:36.003Z,-2.14
2024-01-11T18:48:36.830Z,-2.15
2024-01-11T18:53:36.770Z,-2.08
2024-01-11T18:58:36.263Z,-2.06
2024-01-11T19:03:36.509Z,-2.03
2024-01-11T19:08:37.718Z,-1.98
2024-01-11T19:13:35.929Z,-2.01
2024-01-11T19:18:36.018Z,-2
2024-01-11T19:23:36.843Z,-1.96
2024-01-11T19:28:35.933Z,-1.92
2024-01-11T19:33:35.936Z,-1.9
2024-01-11T19:38:40.074Z,-1.93
2024-01-11T19:43:38.613Z,-1.97
2024-01-11T19:48:36.007Z,-1.96
2024-01-11T19:53:35.923Z,-1.93
2024-01-11T19:58:37.470Z,-1.87
2024-01-11T20:03:37.796Z,-1.87
2024-01-11T20:08:35.947Z,-1.84
2024-01-11T20:13:35.979Z,-1.82
2024-01-11T20:18:36.730Z,-1.81
2024-01-11T20:23:42.542Z,-1.82
2024-01-11T20:28:35.943Z,-1.84
2024-01-11T20:33:36.052Z,-1.85
2024-01-11T20:38:36.892Z,-1.82
2024-01-11T20:43:36.038Z,-1.86
2024-01-11T20:48:36.021Z,-1.81
2024-01-11T20:53:36.140Z,-1.83
2024-01-11T20:58:35.965Z,-1.85
2024-01-11T21:03:36.164Z,-1.75
2024-01-11T21:08:36.053Z,-1.79
2024-01-11T21:13:35.943Z,-1.82
2024-01-11T21:18:37.000Z,-1.87
2024-01-11T21:23:36.067Z,-1.79
2024-01-11T21:28:36.030Z,-1.82
2024-01-11T21:33:36.312Z,-1.76
2024-01-11T21:38:35.931Z,-1.72
2024-01-11T21:43:37.617Z,-1.79
2024-01-11T21:48:36.093Z,-1.72
2024-01-11T21:53:36.156Z,-1.74
2024-01-11T21:58:36.028Z,-1.78
2024-01-11T22:03:36.330Z,-1.68
2024-01-11T22:08:36.053Z,-1.75
2024-01-11T22:13:36.118Z,-1.73
2024-01-11T22:18:36.106Z,-1.7
2024-01-11T22:23:36.072Z,-1.66
2024-01-11T22:28:35.943Z,-1.68
2024-01-11T22:33:36.289Z,-1.68
2024-01-11T22:38:36.070Z,-1.71
2024-01-11T22:43:37.063Z,-1.69
2024-01-11T22:48:37.622Z,-1.71
2024-01-11T22:53:36.123Z,-1.67
2024-01-11T22:58:36.031Z,-1.73
2024-01-11T23:03:36.065Z,-1.7
2024-01-11T23:08:36.095Z,-1.67
2024-01-11T23:13:36.034Z,-1.67
2024-01-11T23:18:36.312Z,-1.73
2024-01-11T23:23:36.052Z,-1.64
2024-01-11T23:28:36.040Z,-1.72
2024-01-11T23:33:36.179Z,-1.69
2024-01-11T23:38:36.171Z,-1.69
2024-01-11T23:43:36.173Z,-1.69
2024-01-11T23:48:37.873Z,-1.66
2024-01-11T23:53:36.077Z,-1.68
2024-01-11T23:58:35.985Z,-1.7
